Time;durP1;ratioP1;P1;durP2;ratioP2;P2;SDS_P1;SDS_P2;PMS_P1;PMS_P2;Temp;Humidity;BMP_temperature;BMP_pressure;BME280_temperature;BME280_humidity;BME280_pressure;Samples;Min_cycle;Max_cycle;Signal;HPM_P1;HPM_P2
2022/06/17 00:01:33;;;;;;;2.95;1.13;;;;;;;16.53;46.39;101636.72;7395895;19;20023;-66
2022/06/17 00:04:02;;;;;;;1.42;0.85;;;;;;;16.50;46.18;101635.97;7395117;19;20011;-67
2022/06/17 00:06:37;;;;;;;3.08;0.98;;;;;;;16.45;46.65;101644.91;7395001;19;20414;-66
2022/06/17 00:09:08;;;;;;;3.75;1.00;;;;;;;16.42;46.60;101638.84;7396841;19;20018;-67
2022/06/17 00:11:39;;;;;;;2.55;1.15;;;;;;;16.37;46.76;101641.63;7395110;19;20024;-67
2022/06/17 00:14:13;;;;;;;1.60;1.13;;;;;;;16.32;47.33;101648.00;7395763;19;20032;-67
2022/06/17 00:16:45;;;;;;;3.35;1.00;;;;;;;16.26;47.17;101654.34;7396729;19;20027;-67
2022/06/17 00:19:14;;;;;;;2.70;0.90;;;;;;;16.21;47.33;101664.22;7397279;19;20024;-67
2022/06/17 00:21:46;;;;;;;4.78;1.30;;;;;;;16.15;47.41;101659.09;7395925;19;20494;-67
2022/06/17 00:24:18;;;;;;;1.15;0.68;;;;;;;16.09;47.52;101653.09;7396396;19;20486;-67
2022/06/17 00:26:48;;;;;;;2.72;0.70;;;;;;;16.04;47.72;101648.88;7396290;19;20089;-67
2022/06/17 00:29:18;;;;;;;0.73;0.65;;;;;;;15.98;47.71;101657.84;7395079;19;20019;-67
2022/06/17 00:31:50;;;;;;;2.55;1.23;;;;;;;15.93;47.83;101660.59;7395518;19;20015;-64
2022/06/17 00:34:19;;;;;;;2.50;0.88;;;;;;;15.88;48.16;101661.66;7395109;19;20027;-66
2022/06/17 00:36:48;;;;;;;2.28;1.10;;;;;;;15.77;48.07;101662.81;7394661;19;20027;-65
2022/06/17 00:39:18;;;;;;;2.58;0.90;;;;;;;15.72;48.20;101672.69;7395803;19;20015;-65
2022/06/17 00:41:50;;;;;;;4.10;0.80;;;;;;;15.63;48.30;101676.44;7395897;19;20018;-64
2022/06/17 00:44:30;;;;;;;3.88;0.90;;;;;;;15.57;48.73;101676.63;7394761;19;20018;-66
2022/06/17 00:47:09;;;;;;;1.27;0.60;;;;;;;15.51;48.52;101673.28;7396356;19;20023;-65
2022/06/17 00:49:50;;;;;;;1.52;0.90;;;;;;;15.40;49.21;101669.13;7396307;19;20062;-66
2022/06/17 00:52:24;;;;;;;1.88;1.00;;;;;;;15.32;48.77;101666.69;7394410;19;20031;-66
2022/06/17 00:54:55;;;;;;;;;;;;;;;15.28;48.96;101666.84;7396278;19;20014;-65
2022/06/17 00:57:29;;;;;;;1.98;0.80;;;;;;;15.23;48.76;101666.09;7396189;19;19922;-66
2022/06/17 01:00:17;;;;;;;1.80;0.70;;;;;;;15.19;48.97;101667.06;7394032;19;20363;-67
2022/06/17 01:02:51;;;;;;;1.45;1.10;;;;;;;15.14;49.15;101677.78;7394375;19;20388;-67
2022/06/17 01:05:22;;;;;;;1.20;0.93;;;;;;;15.09;49.26;101674.34;7395963;19;20019;-67
2022/06/17 01:07:54;;;;;;;1.85;1.00;;;;;;;15.05;49.55;101678.00;7395028;19;20070;-66
2022/06/17 01:10:20;;;;;;;1.42;0.77;;;;;;;15.01;49.52;101676.34;7393197;19;20419;-67
2022/06/17 01:12:54;;;;;;;0.90;0.80;;;;;;;14.97;50.17;101675.56;7394032;19;20015;-66
2022/06/17 01:15:26;;;;;;;1.30;0.80;;;;;;;14.90;50.06;101676.59;7394949;19;20392;-67
2022/06/17 01:17:58;;;;;;;1.50;1.20;;;;;;;14.83;50.17;101676.75;7394193;19;20022;-68
2022/06/17 01:20:29;;;;;;;1.75;0.80;;;;;;;14.80;50.35;101681.28;7394668;19;20022;-67
2022/06/17 01:23:02;;;;;;;1.48;1.00;;;;;;;14.77;50.32;101681.31;7394130;19;20506;-66
2022/06/17 01:25:34;;;;;;;1.55;0.85;;;;;;;14.75;50.61;101675.22;7402605;19;20387;-66
2022/06/17 01:28:05;;;;;;;1.60;0.90;;;;;;;14.73;50.35;101688.44;7403036;19;20032;-67
2022/06/17 01:30:38;;;;;;;3.95;1.27;;;;;;;14.70;50.87;101677.97;7400061;19;20026;-67
2022/06/17 01:33:15;;;;;;;2.33;1.00;;;;;;;14.67;51.05;101685.97;7399081;19;20018;-67
2022/06/17 01:35:48;;;;;;;3.00;1.10;;;;;;;14.64;50.94;101688.66;7399840;19;20078;-66
2022/06/17 01:38:19;;;;;;;3.13;1.40;;;;;;;14.60;50.96;101690.50;7402010;19;20078;-67
2022/06/17 01:40:48;;;;;;;3.35;1.00;;;;;;;14.59;51.10;101691.38;7398860;19;20018;-66
2022/06/17 01:43:21;;;;;;;1.85;1.10;;;;;;;14.55;51.24;101683.59;7398737;19;20371;-66
2022/06/17 01:45:59;;;;;;;2.72;1.70;;;;;;;14.53;51.30;101682.75;7402422;19;20018;-67
2022/06/17 01:48:32;;;;;;;1.95;0.93;;;;;;;14.50;51.30;101687.19;7402622;19;20027;-67
2022/06/17 01:51:03;;;;;;;1.83;1.20;;;;;;;14.48;51.51;101683.72;7399488;19;20018;-67
2022/06/17 01:53:39;;;;;;;2.30;1.42;;;;;;;14.42;51.72;101683.88;7398532;19;20095;-66
2022/06/17 01:56:13;;;;;;;1.58;0.90;;;;;;;14.42;51.78;101686.50;7401273;19;20489;-67
2022/06/17 01:58:46;;;;;;;1.55;1.00;;;;;;;14.39;52.03;101685.72;7399435;19;20022;-67
2022/06/17 02:01:16;;;;;;;1.70;1.10;;;;;;;14.35;52.10;101690.19;7398382;19;20027;-66
2022/06/17 02:03:49;;;;;;;3.30;1.00;;;;;;;14.31;52.15;101677.97;7401567;19;20078;-67
2022/06/17 02:06:19;;;;;;;;;;;;;;;14.29;52.25;101693.84;7400399;19;20425;-66
2022/06/17 02:08:51;;;;;;;1.45;0.80;;;;;;;14.24;52.15;101686.91;7398848;19;20366;-67
2022/06/17 02:11:20;;;;;;;2.22;1.00;;;;;;;14.19;52.38;101687.00;7398754;19;20014;-66
2022/06/17 02:13:49;;;;;;;1.00;0.88;;;;;;;14.17;52.59;101686.19;7399687;19;20066;-67
2022/06/17 02:16:19;;;;;;;4.22;1.10;;;;;;;14.14;52.85;101687.13;7401298;19;20387;-67
2022/06/17 02:18:48;;;;;;;2.58;1.10;;;;;;;14.11;52.91;101689.81;7400750;19;20031;-67
2022/06/17 02:21:23;;;;;;;2.83;1.00;;;;;;;14.07;52.94;101698.69;7397559;19;20018;-66
2022/06/17 02:23:56;;;;;;;2.78;1.50;;;;;;;14.05;53.23;101694.34;7400865;19;20027;-68
2022/06/17 02:26:25;;;;;;;2.97;1.50;;;;;;;14.03;53.31;101710.22;7397692;19;20038;-67
2022/06/17 02:28:54;;;;;;;2.42;1.30;;;;;;;14.00;53.26;101715.56;7397984;19;20039;-67
2022/06/17 02:31:24;;;;;;;2.38;1.10;;;;;;;13.96;53.50;101711.25;7397722;19;20022;-67
2022/06/17 02:33:53;;;;;;;3.72;1.25;;;;;;;13.93;53.57;101706.91;7397699;19;20018;-67
2022/06/17 02:36:28;;;;;;;5.32;1.55;;;;;;;13.91;53.79;101710.47;7398288;19;20019;-67
2022/06/17 02:39:01;;;;;;;3.40;1.15;;;;;;;13.88;53.82;101721.09;7397368;19;20024;-67
2022/06/17 02:41:31;;;;;;;2.63;1.40;;;;;;;13.84;54.06;101726.41;7397961;19;20070;-66
2022/06/17 02:44:04;;;;;;;1.15;1.02;;;;;;;13.80;54.23;101729.13;7397365;19;20074;-66
2022/06/17 02:46:37;;;;;;;3.35;1.33;;;;;;;13.77;54.23;101732.72;7400272;19;20079;-66
2022/06/17 02:49:09;;;;;;;2.88;1.15;;;;;;;13.73;54.29;101728.41;7400162;19;20023;-67
2022/06/17 02:51:41;;;;;;;4.97;1.08;;;;;;;13.71;54.45;101719.66;7399466;19;20042;-67
2022/06/17 02:54:18;;;;;;;2.92;1.17;;;;;;;13.70;54.72;101710.00;7396907;19;20018;-67
2022/06/17 02:56:50;;;;;;;2.15;1.25;;;;;;;13.67;54.63;101703.03;7399284;19;20070;-67
2022/06/17 02:59:25;;;;;;;4.00;1.40;;;;;;;13.65;54.79;101707.47;7400025;19;20028;-67
2022/06/17 03:01:58;;;;;;;2.47;1.13;;;;;;;13.64;54.73;101705.72;7397389;19;20031;-66
2022/06/17 03:04:30;;;;;;;2.80;1.27;;;;;;;13.63;54.93;101713.66;7399829;19;20023;-67
2022/06/17 03:06:59;;;;;;;3.15;1.45;;;;;;;13.61;55.01;101715.44;7399444;19;20014;-67
2022/06/17 03:09:34;;;;;;;1.70;1.23;;;;;;;13.60;55.20;101708.47;7398486;19;20007;-66
2022/06/17 03:12:09;;;;;;;1.98;1.40;;;;;;;13.58;55.05;101708.47;7397657;19;20376;-67
2022/06/17 03:14:42;;;;;;;12.13;1.40;;;;;;;13.57;55.44;101705.84;7397742;19;20023;-68
2022/06/17 03:17:16;;;;;;;4.82;1.60;;;;;;;13.55;55.37;101720.81;7397047;19;20085;-66
2022/06/17 03:19:44;;;;;;;3.65;1.73;;;;;;;13.51;55.43;101718.25;7396987;19;20022;-66
2022/06/17 03:22:15;;;;;;;2.42;1.35;;;;;;;13.49;55.68;101714.78;7396149;19;20430;-67
2022/06/17 03:24:54;;;;;;;2.13;1.58;;;;;;;13.46;55.60;101721.91;7398546;19;20035;-66
2022/06/17 03:27:29;;;;;;;2.33;1.60;;;;;;;13.43;55.80;101721.94;7396792;19;20022;-69
2022/06/17 03:30:02;;;;;;;1.90;1.33;;;;;;;13.39;55.76;101723.75;7396005;19;20372;-66
2022/06/17 03:32:36;;;;;;;1.77;1.33;;;;;;;13.35;55.87;101722.91;7395709;19;20019;-66
2022/06/17 03:35:05;;;;;;;2.40;1.48;;;;;;;13.33;56.19;101715.91;7395738;19;20376;-66
2022/06/17 03:37:39;;;;;;;3.08;1.58;;;;;;;13.29;56.11;101717.72;7397332;19;20031;-67
2022/06/17 03:40:21;;;;;;;1.60;1.40;;;;;;;13.28;56.19;101717.75;7395427;19;20011;-66
2022/06/17 03:42:56;;;;;;;2.60;1.40;;;;;;;13.26;56.36;101716.94;7395663;19;20481;-66
2022/06/17 03:45:28;;;;;;;1.73;1.50;;;;;;;13.25;56.46;101712.56;7398425;19;20031;-66
2022/06/17 03:48:03;;;;;;;1.60;1.50;;;;;;;13.23;56.72;101722.25;7392473;19;20023;-66
2022/06/17 03:50:35;;;;;;;1.77;1.58;;;;;;;13.21;56.62;101717.00;7397630;19;20023;-66
2022/06/17 03:53:07;;;;;;;4.35;1.27;;;;;;;13.20;56.86;101729.34;7395511;19;20035;-66
2022/06/17 03:55:39;;;;;;;2.78;1.80;;;;;;;13.20;56.97;101725.81;7394774;19;20147;-66
2022/06/17 03:58:08;;;;;;;1.55;1.30;;;;;;;13.20;57.01;101731.97;7397702;19;20018;-66
2022/06/17 04:00:45;;;;;;;2.22;1.40;;;;;;;13.19;57.13;101732.84;7394461;19;20011;-66
2022/06/17 04:03:19;;;;;;;2.15;1.40;;;;;;;13.19;57.04;101729.34;7395577;19;20023;-67
2022/06/17 04:05:51;;;;;;;3.17;1.50;;;;;;;13.19;57.10;101732.84;7395043;19;20026;-66
2022/06/17 04:08:20;;;;;;;9.95;2.10;;;;;;;13.20;57.10;101738.97;7395258;19;20031;-66
2022/06/17 04:10:51;;;;;;;3.05;1.52;;;;;;;13.23;57.48;101752.13;7394624;19;20418;-65
2022/06/17 04:13:24;;;;;;;2.28;1.50;;;;;;;13.24;57.71;101747.72;7394773;19;20023;-66
2022/06/17 04:16:00;;;;;;;2.85;1.70;;;;;;;13.24;57.60;101751.19;7397153;19;20081;-66
2022/06/17 04:18:28;;;;;;;3.90;1.75;;;;;;;13.25;57.60;101755.59;7396557;19;20018;-65
2022/06/17 04:20:58;;;;;;;3.53;1.38;;;;;;;13.27;57.59;101755.56;7396285;19;20031;-66
2022/06/17 04:23:29;;;;;;;3.15;2.17;;;;;;;13.28;57.71;101757.28;7396426;19;20031;-65
2022/06/17 04:26:05;;;;;;;2.10;1.67;;;;;;;13.29;57.81;101762.53;7396818;19;20022;-65
2022/06/17 04:28:39;;;;;;;2.92;1.92;;;;;;;13.32;57.95;101762.50;7394240;19;20039;-66
2022/06/17 04:31:09;;;;;;;;;;;;;;;13.36;58.84;101761.53;7396259;19;20469;-66
2022/06/17 04:33:50;;;;;;;4.38;2.47;;;;;;;13.38;57.88;101756.28;7395126;19;19926;-66
2022/06/17 04:36:23;;;;;;;4.72;1.90;;;;;;;13.44;57.80;101761.44;7395250;19;20508;-66
2022/06/17 04:38:56;;;;;;;6.43;1.92;;;;;;;13.50;57.86;101760.47;7394325;19;20098;-67
2022/06/17 04:41:32;;;;;;;4.60;2.00;;;;;;;13.57;57.90;101762.09;7395001;19;20014;-65
2022/06/17 04:44:02;;;;;;;5.25;2.85;;;;;;;13.63;58.07;101753.22;7396059;19;20423;-66
2022/06/17 04:46:35;;;;;;;6.20;1.90;;;;;;;13.69;58.14;101753.94;7395287;19;20458;-66
2022/06/17 04:49:05;;;;;;;4.85;2.25;;;;;;;13.76;58.08;101752.09;7395851;19;20022;-66
2022/06/17 04:51:36;;;;;;;2.03;1.58;;;;;;;13.81;58.18;101749.34;7394801;19;20018;-65
2022/06/17 04:54:07;;;;;;;3.08;1.65;;;;;;;13.85;58.16;101757.19;7392885;19;20032;-65
2022/06/17 04:56:43;;;;;;;4.00;2.00;;;;;;;13.91;58.97;101761.44;7393265;19;20579;-66
2022/06/17 04:59:32;;;;;;;5.07;2.05;;;;;;;13.95;58.49;101768.44;7391259;19;20031;-65
2022/06/17 05:02:01;;;;;;;3.55;2.08;;;;;;;13.99;58.46;101764.81;7396186;19;20015;-66
2022/06/17 05:04:29;;;;;;;4.13;2.53;;;;;;;14.04;58.42;101762.09;7392703;19;20031;-68
2022/06/17 05:06:58;;;;;;;5.07;2.42;;;;;;;14.09;58.62;101757.59;7392148;19;20018;-69
2022/06/17 05:10:01;;;;;;;3.05;2.00;;;;;;;14.16;58.44;101756.56;7392299;19;20019;-67
2022/06/17 05:12:41;;;;;;;5.47;2.65;;;;;;;14.23;59.46;101759.06;7392376;19;20078;-66
2022/06/17 05:15:15;;;;;;;4.22;2.35;;;;;;;14.25;58.84;101760.78;7391925;19;20014;-66
2022/06/17 05:17:44;;;;;;;3.00;2.13;;;;;;;14.31;58.68;101765.06;7393149;19;20018;-66
2022/06/17 05:20:16;;;;;;;3.22;2.22;;;;;;;14.34;59.14;101765.88;7393552;19;20085;-66
2022/06/17 05:22:48;;;;;;;6.43;2.30;;;;;;;14.41;58.85;101763.97;7391965;19;20018;-66
2022/06/17 05:25:20;;;;;;;5.60;2.78;;;;;;;14.46;59.06;101761.25;7393635;19;20022;-66
2022/06/17 05:27:51;;;;;;;4.72;2.30;;;;;;;14.54;58.70;101761.06;7393634;19;20014;-66
2022/06/17 05:30:20;;;;;;;4.30;2.70;;;;;;;14.60;58.65;101759.16;7394606;19;20034;-66
2022/06/17 05:32:51;;;;;;;5.20;2.35;;;;;;;14.67;58.48;101751.97;7392452;19;20097;-67
2022/06/17 05:35:21;;;;;;;4.90;2.80;;;;;;;14.74;58.33;101756.22;7392346;19;20087;-67
2022/06/17 05:37:49;;;;;;;7.68;2.55;;;;;;;14.83;58.39;101750.72;7393272;19;20377;-66
2022/06/17 05:40:18;;;;;;;8.55;2.88;;;;;;;14.90;58.43;101755.88;7391489;19;20022;-67
2022/06/17 05:42:49;;;;;;;5.15;2.50;;;;;;;14.93;58.32;101755.81;7391216;19;20039;-67
2022/06/17 05:45:23;;;;;;;5.47;2.58;;;;;;;15.02;58.43;101768.78;7393990;19;20015;-66
2022/06/17 05:47:52;;;;;;;5.93;2.22;;;;;;;15.08;57.56;101760.72;7392068;19;20083;-66
2022/06/17 05:50:22;;;;;;;4.47;2.60;;;;;;;15.15;57.84;101767.59;7392845;19;20014;-66
2022/06/17 05:52:53;;;;;;;5.70;2.80;;;;;;;15.23;57.60;101774.47;7391449;19;20035;-66
2022/06/17 05:55:23;;;;;;;7.13;2.65;;;;;;;15.30;57.59;101773.41;7392932;19;20031;-66
2022/06/17 05:57:52;;;;;;;7.80;3.10;;;;;;;15.37;57.36;101769.69;7391832;19;20018;-67
2022/06/17 06:00:23;;;;;;;6.68;2.60;;;;;;;15.45;57.15;101773.00;7391140;19;20014;-66
2022/06/17 06:02:52;;;;;;;5.80;2.38;;;;;;;15.52;57.08;101780.78;7391101;19;20018;-66
2022/06/17 06:05:23;;;;;;;6.50;2.70;;;;;;;15.61;56.98;101785.84;7392163;19;20090;-67
2022/06/17 06:07:52;;;;;;;5.30;2.90;;;;;;;15.69;56.41;101780.34;7391435;19;20031;-66
2022/06/17 06:10:21;;;;;;;6.32;2.85;;;;;;;15.74;56.49;101773.16;7393287;19;20513;-65
2022/06/17 06:12:57;;;;;;;6.72;2.85;;;;;;;15.82;56.26;101778.28;7397773;19;20019;-66
2022/06/17 06:15:32;;;;;;;9.43;2.78;;;;;;;15.90;56.46;101773.66;7399256;19;20414;-66
2022/06/17 06:18:00;;;;;;;6.43;2.53;;;;;;;15.98;55.80;101779.59;7399971;19;20037;-65
2022/06/17 06:20:29;;;;;;;4.28;2.25;;;;;;;16.07;55.66;101778.47;7400266;19;20015;-66
2022/06/17 06:22:58;;;;;;;3.63;2.17;;;;;;;16.15;55.52;101783.53;7396284;19;20118;-67
2022/06/17 06:25:27;;;;;;;7.00;2.63;;;;;;;16.24;55.12;101778.00;7398971;19;20069;-66
2022/06/17 06:27:55;;;;;;;4.35;2.20;;;;;;;16.32;54.90;101780.41;7400233;19;20018;-66
2022/06/17 06:30:29;;;;;;;7.85;2.72;;;;;;;16.39;54.50;101782.84;7396792;19;20035;-66
2022/06/17 06:33:00;;;;;;;6.65;2.60;;;;;;;16.49;54.30;101791.38;7397906;19;20078;-65
2022/06/17 06:35:30;;;;;;;8.10;2.05;;;;;;;16.56;54.13;101789.41;7398280;19;20026;-65
2022/06/17 06:37:58;;;;;;;3.90;2.05;;;;;;;16.64;54.02;101797.97;7398367;19;20018;-66
2022/06/17 06:40:27;;;;;;;10.10;2.05;;;;;;;16.74;53.55;101802.09;7398016;19;20347;-66
2022/06/17 06:42:56;;;;;;;7.38;2.00;;;;;;;16.82;53.82;101793.03;7397908;19;20026;-65
2022/06/17 06:45:30;;;;;;;4.70;1.70;;;;;;;16.91;53.42;101798.09;7399277;19;20023;-66
2022/06/17 06:48:01;;;;;;;3.03;1.27;;;;;;;16.98;52.92;101801.41;7397229;19;20022;-66
2022/06/17 06:50:33;;;;;;;5.18;1.65;;;;;;;17.06;52.58;101797.59;7399126;19;20489;-66
2022/06/17 06:53:01;;;;;;;5.82;1.90;;;;;;;17.16;52.42;101794.63;7397498;19;20014;-66
2022/06/17 06:55:30;;;;;;;4.63;1.67;;;;;;;17.28;52.09;101803.97;7397783;19;20114;-66
2022/06/17 06:58:01;;;;;;;2.97;1.50;;;;;;;17.35;51.74;101801.06;7399803;19;20087;-67
2022/06/17 07:00:34;;;;;;;5.15;1.60;;;;;;;17.47;51.63;101796.28;7399672;19;20074;-66
2022/06/17 07:03:03;;;;;;;2.60;1.30;;;;;;;17.57;51.54;101800.34;7396471;19;20028;-67
2022/06/17 07:05:32;;;;;;;4.20;1.30;;;;;;;17.68;50.91;101797.31;7396441;19;20019;-67
2022/06/17 07:08:00;;;;;;;4.50;1.48;;;;;;;17.77;50.59;101798.78;7398647;19;20035;-66
2022/06/17 07:10:41;;;;;;;3.15;1.40;;;;;;;17.85;50.31;101808.19;7396065;19;20027;-66
2022/06/17 07:13:10;;;;;;;3.05;1.55;;;;;;;17.93;50.51;101805.25;7396456;19;20026;-67
2022/06/17 07:15:43;;;;;;;5.78;2.03;;;;;;;18.02;49.49;101812.94;7396525;19;20572;-67
2022/06/17 07:18:16;;;;;;;5.50;1.88;;;;;;;18.07;49.63;101805.69;7395646;19;20018;-66
2022/06/17 07:20:55;;;;;;;2.28;1.00;;;;;;;18.15;49.04;101804.53;7396114;19;20031;-66
2022/06/17 07:23:25;;;;;;;3.03;1.38;;;;;;;18.22;49.14;101809.56;7395478;19;20383;-66
2022/06/17 07:25:54;;;;;;;6.45;1.52;;;;;;;18.28;48.62;101813.78;7398411;19;20015;-66
2022/06/17 07:28:25;;;;;;;4.63;2.20;;;;;;;18.35;48.60;101809.09;7395864;19;20066;-67
2022/06/17 07:30:58;;;;;;;4.93;1.33;;;;;;;18.43;48.70;101816.78;7397873;19;20412;-66
2022/06/17 07:33:30;;;;;;;10.13;1.33;;;;;;;18.49;48.47;101827.19;7395396;19;20027;-66
2022/06/17 07:36:01;;;;;;;2.78;1.52;;;;;;;18.53;48.02;101829.66;7396070;19;20023;-66
2022/06/17 07:41:17;;;;;;;4.35;1.27;;;;;;;18.63;48.07;101829.31;7396982;19;20003;-68
2022/06/17 07:43:46;;;;;;;5.10;1.60;;;;;;;18.67;48.12;101822.97;7397172;19;20383;-68
2022/06/17 07:46:18;;;;;;;3.85;1.67;;;;;;;18.69;47.83;101821.97;7397437;19;20032;-68
2022/06/17 07:48:47;;;;;;;13.45;1.92;;;;;;;18.75;47.89;101820.00;7397632;19;20045;-68
2022/06/17 07:51:15;;;;;;;4.50;1.40;;;;;;;18.83;47.71;101831.19;7397316;19;20011;-69
2022/06/17 07:53:44;;;;;;;4.82;1.50;;;;;;;18.89;47.68;101830.94;7396676;19;20537;-67
2022/06/17 07:56:15;;;;;;;4.35;1.40;;;;;;;18.95;47.84;101836.06;7394928;19;20090;-68
2022/06/17 07:58:44;;;;;;;2.95;1.65;;;;;;;19.03;47.75;101833.97;7397039;19;20010;-67
2022/06/17 08:01:14;;;;;;;4.45;1.92;;;;;;;19.08;47.45;101830.25;7396073;19;20023;-68
2022/06/17 08:03:45;;;;;;;4.03;1.83;;;;;;;19.16;47.66;101836.16;7397007;19;20015;-68
2022/06/17 08:06:16;;;;;;;4.40;2.20;;;;;;;19.21;47.44;101850.13;7396044;19;20031;-67
2022/06/17 08:08:45;;;;;;;3.20;2.10;;;;;;;19.23;47.60;101837.59;7394346;19;20015;-67
2022/06/17 08:11:15;;;;;;;6.05;2.20;;;;;;;19.26;47.52;101834.84;7395777;19;20457;-67
2022/06/17 08:13:43;;;;;;;3.28;1.73;;;;;;;19.29;47.68;101828.53;7396250;19;20497;-68
2022/06/17 08:16:15;;;;;;;5.53;1.90;;;;;;;19.33;47.69;101838.09;7394301;19;20476;-67
2022/06/17 08:18:46;;;;;;;5.53;2.13;;;;;;;19.36;47.09;101827.31;7395931;19;20386;-68
2022/06/17 08:21:15;;;;;;;3.72;1.77;;;;;;;19.41;46.95;101843.97;7396096;19;20375;-68
2022/06/17 08:23:46;;;;;;;5.05;1.95;;;;;;;19.43;46.71;101841.25;7396493;19;20035;-67
2022/06/17 08:26:14;;;;;;;4.25;1.70;;;;;;;19.44;46.27;101833.19;7395510;19;20466;-68
2022/06/17 08:28:43;;;;;;;5.28;1.75;;;;;;;19.53;46.02;101846.09;7395400;19;20023;-67
2022/06/17 08:31:11;;;;;;;2.42;1.70;;;;;;;19.59;45.84;101847.66;7395467;19;20077;-67
2022/06/17 08:33:40;;;;;;;4.88;1.42;;;;;;;19.63;45.55;101841.28;7394048;19;20015;-68
2022/06/17 08:36:13;;;;;;;3.60;1.60;;;;;;;19.67;43.49;101826.03;7394669;19;20434;-68
2022/06/17 08:38:46;;;;;;;2.38;1.30;;;;;;;19.72;44.49;101833.84;7394994;19;20485;-66
2022/06/17 08:41:28;;;;;;;4.70;1.80;;;;;;;19.73;44.92;101839.09;7395081;19;20020;-67
2022/06/17 08:44:14;;;;;;;4.10;1.80;;;;;;;19.76;44.86;101833.63;7392815;19;20384;-68
2022/06/17 08:46:59;;;;;;;4.15;1.33;;;;;;;19.78;44.41;101820.25;7395255;19;20155;-67
2022/06/17 08:49:44;;;;;;;3.00;1.30;;;;;;;19.81;43.58;101826.28;7393839;19;20024;-68
2022/06/17 08:52:29;;;;;;;2.90;1.25;;;;;;;19.85;43.24;101829.72;7394775;19;20374;-67
2022/06/17 08:55:09;;;;;;;3.42;1.20;;;;;;;19.91;42.54;101836.59;7395125;19;20010;-67
2022/06/17 08:57:47;;;;;;;1.77;0.90;;;;;;;19.97;40.69;101820.34;7395860;19;20018;-68
2022/06/17 09:00:20;;;;;;;2.20;1.00;;;;;;;20.00;40.32;101815.75;7395371;19;20040;-67
2022/06/17 09:03:20;;;;;;;4.00;1.77;;;;;;;20.07;40.06;101826.09;7393230;19;20022;-67
2022/06/17 09:05:56;;;;;;;1.45;1.10;;;;;;;20.14;39.82;101830.25;7395133;19;20379;-68
2022/06/17 09:08:49;;;;;;;4.35;1.45;;;;;;;20.14;40.71;101811.59;7393611;19;20023;-68
2022/06/17 09:11:22;;;;;;;3.90;1.10;;;;;;;20.24;40.73;101822.69;7393105;19;20015;-67
2022/06/17 09:14:04;;;;;;;2.60;1.30;;;;;;;20.26;38.65;101819.03;7393736;19;20017;-67
2022/06/17 09:16:51;;;;;;;3.88;1.40;;;;;;;20.30;40.53;101814.44;7393039;19;20449;-68
2022/06/17 09:19:28;;;;;;;2.13;1.05;;;;;;;20.34;39.95;101808.00;7394314;19;20014;-67
2022/06/17 09:22:02;;;;;;;3.33;1.30;;;;;;;20.44;39.99;101816.47;7393343;19;20026;-68
2022/06/17 09:24:39;;;;;;;2.25;0.90;;;;;;;20.50;38.26;101814.38;7391849;19;20014;-68
2022/06/17 09:27:11;;;;;;;2.35;0.80;;;;;;;20.55;37.71;101813.28;7393981;19;20020;-68
2022/06/17 09:29:45;;;;;;;1.38;0.80;;;;;;;20.58;38.08;101798.00;7391036;19;20505;-68
2022/06/17 09:32:19;;;;;;;2.08;1.08;;;;;;;20.60;37.02;101805.94;7392031;19;20037;-68
2022/06/17 09:34:53;;;;;;;1.67;1.25;;;;;;;20.65;38.27;101794.13;7392872;19;20022;-68
2022/06/17 09:37:27;;;;;;;4.03;1.20;;;;;;;20.73;38.69;101796.44;7391504;19;20042;-68
2022/06/17 09:40:02;;;;;;;2.35;1.15;;;;;;;20.80;37.23;101797.00;7391330;19;20018;-68
2022/06/17 09:42:37;;;;;;;3.47;0.95;;;;;;;20.88;37.62;101800.19;7391749;19;20037;-67
2022/06/17 09:45:15;;;;;;;1.08;0.73;;;;;;;20.92;37.06;101798.25;7398726;19;20066;-68
2022/06/17 09:47:48;;;;;;;1.55;0.90;;;;;;;20.95;37.59;101798.06;7401296;19;20015;-67
2022/06/17 09:50:22;;;;;;;2.03;0.80;;;;;;;20.97;37.15;101797.06;7397727;19;20015;-68
2022/06/17 09:52:57;;;;;;;1.52;1.00;;;;;;;21.03;37.64;101789.69;7398344;19;20019;-67
2022/06/17 09:55:35;;;;;;;2.40;0.90;;;;;;;21.10;37.38;101788.47;7399758;19;20015;-67
2022/06/17 09:58:09;;;;;;;1.80;1.27;;;;;;;21.15;37.67;101795.31;7400913;19;20022;-67
2022/06/17 10:00:41;;;;;;;1.58;0.90;;;;;;;21.21;37.97;101795.94;7400514;19;20343;-67
2022/06/17 10:03:21;;;;;;;2.25;1.10;;;;;;;21.27;36.78;101792.97;7398619;19;20360;-67
2022/06/17 10:06:00;;;;;;;2.60;0.88;;;;;;;21.33;36.22;101789.97;7401170;19;20027;-68
2022/06/17 10:08:40;;;;;;;1.40;0.85;;;;;;;21.38;36.50;101771.94;7401758;19;20015;-68
2022/06/17 10:11:18;;;;;;;2.70;0.95;;;;;;;21.44;35.71;101774.25;7398537;19;20006;-68
2022/06/17 10:13:58;;;;;;;4.15;0.82;;;;;;;21.48;35.87;101774.97;7401065;19;20014;-68
2022/06/17 10:19:29;;;;;;;1.60;1.00;;;;;;;21.58;35.52;101772.72;7399511;19;20380;-67
2022/06/17 10:22:19;;;;;;;1.25;0.90;;;;;;;21.64;35.99;101762.59;7399062;19;20018;-67
2022/06/17 10:25:01;;;;;;;1.88;1.15;;;;;;;21.72;36.18;101762.19;7399056;19;20015;-67
2022/06/17 10:27:54;;;;;;;2.08;0.88;;;;;;;21.79;34.61;101763.59;7399020;19;20022;-67
2022/06/17 10:30:25;;;;;;;1.88;1.20;;;;;;;21.89;35.31;101758.63;7396729;19;20364;-67
2022/06/17 10:32:56;;;;;;;2.92;0.93;;;;;;;21.97;35.27;101759.06;7396765;19;20082;-67
2022/06/17 10:35:31;;;;;;;3.92;1.40;;;;;;;22.05;34.74;101764.00;7396186;19;20066;-68
2022/06/17 10:38:03;;;;;;;2.58;1.13;;;;;;;22.15;34.95;101748.31;7395483;19;20082;-68
2022/06/17 10:40:34;;;;;;;4.43;1.25;;;;;;;22.24;35.22;101754.97;7396353;19;20015;-68
2022/06/17 10:43:08;;;;;;;1.65;1.05;;;;;;;22.31;33.40;101759.03;7396330;19;20027;-68
2022/06/17 10:45:37;;;;;;;1.58;0.82;;;;;;;22.38;34.17;101748.88;7399550;19;20019;-67
2022/06/17 10:48:09;;;;;;;3.00;1.00;;;;;;;22.46;33.43;101749.34;7398709;19;20473;-67
2022/06/17 10:50:38;;;;;;;3.75;1.33;;;;;;;22.57;33.67;101748.72;7395965;19;20391;-67
2022/06/17 10:53:13;;;;;;;10.20;2.10;;;;;;;22.69;33.65;101747.19;7396171;19;20420;-67
2022/06/17 10:55:45;;;;;;;3.53;1.13;;;;;;;22.81;32.61;101742.91;7397102;19;20082;-67
2022/06/17 10:58:20;;;;;;;3.20;0.90;;;;;;;22.89;31.15;101749.56;7399152;19;20026;-67
2022/06/17 11:01:01;;;;;;;1.08;0.68;;;;;;;22.94;31.39;101733.25;7395900;19;20436;-66
2022/06/17 11:03:33;;;;;;;1.45;0.80;;;;;;;23.00;31.81;101732.88;7398227;19;20014;-67
2022/06/17 11:06:05;;;;;;;2.40;0.90;;;;;;;23.14;32.40;101724.03;7397639;19;20015;-67
2022/06/17 11:08:38;;;;;;;1.20;0.98;;;;;;;23.22;31.79;101718.25;7397290;19;20485;-67
2022/06/17 11:13:54;;;;;;;2.70;0.90;;;;;;;23.51;31.15;101729.88;7397503;19;20014;-67
2022/06/17 11:16:25;;;;;;;1.95;1.05;;;;;;;23.61;31.32;101718.59;7394761;19;20430;-67
2022/06/17 11:19:02;;;;;;;1.48;0.98;;;;;;;23.72;30.95;101710.75;7395943;19;20018;-67
2022/06/17 11:21:39;;;;;;;2.53;0.80;;;;;;;23.84;30.35;101715.34;7397099;19;20366;-72
2022/06/17 11:24:09;;;;;;;2.40;1.63;;;;;;;23.94;30.89;101717.50;7397242;19;20027;-67
2022/06/17 11:26:38;;;;;;;3.72;1.17;;;;;;;23.98;30.96;101713.66;7394593;19;20155;-67
2022/06/17 11:29:37;;;;;;;2.30;0.90;;;;;;;24.02;31.12;101704.47;7395957;19;20383;-67
2022/06/17 11:32:27;;;;;;;1.88;0.82;;;;;;;24.14;30.41;101701.00;7396400;19;20018;-67
2022/06/17 11:34:58;;;;;;;3.00;1.30;;;;;;;24.30;30.62;101708.94;7394829;19;20383;-68
2022/06/17 11:37:29;;;;;;;2.08;1.00;;;;;;;24.48;30.13;101708.66;7395516;19;20036;-68
2022/06/17 11:40:12;;;;;;;2.50;0.95;;;;;;;24.63;29.60;101696.94;7397013;19;20014;-67
2022/06/17 11:42:48;;;;;;;1.57;0.90;;;;;;;24.76;29.85;101701.50;7395467;19;20022;-67
2022/06/17 11:45:22;;;;;;;2.58;1.00;;;;;;;24.84;30.37;101707.22;7395394;19;20473;-67
2022/06/17 11:47:55;;;;;;;1.15;0.82;;;;;;;24.95;29.91;101702.00;7397317;19;20022;-67
2022/06/17 11:50:26;;;;;;;;;;;;;;;25.08;29.26;101695.81;7398753;19;20014;-66
2022/06/17 11:53:04;;;;;;;1.77;0.75;;;;;;;25.17;29.61;101696.03;7395823;19;19925;-71
2022/06/17 11:55:35;;;;;;;3.30;1.17;;;;;;;25.29;29.76;101698.84;7394256;19;20515;-66
2022/06/17 11:58:03;;;;;;;1.77;0.85;;;;;;;25.45;29.39;101693.28;7394866;19;20039;-68
2022/06/17 12:00:48;;;;;;;2.88;0.90;;;;;;;25.63;28.86;101678.56;7394997;19;20014;-67
2022/06/17 12:03:20;;;;;;;2.72;0.90;;;;;;;25.82;28.67;101691.53;7395085;19;20026;-67